71.6°F
Current conditions from King Hill
Updated every 5 minutes
 
  Friday August 29, 2014

Station Historical Data
Daily Summary for February 22, 2012 Units:  Both    English   Metric
« Previous Day
Next Day »
Daily Weekly Monthly Yearly Custom
  High: Low: Average:
Temperature: 45.2 °F /  7.3 °C 32.8 °F /  0.4 °C 38.1 °F /  3.4 °C
Dew Point: 34.1 °F /  1.2 °C 25.0 °F /  -3.9 °C 30 °F /  -1.1 °C
Humidity: 92% 46% 74%
Wind Speed: 12.0mph /  19.3km/h - 6mph /  9.7km/h
Wind Gust: 22.0mph /  35.4km/h - -
Wind- - SW
Pressure: 29.71 in /  1006 hPa 29.37 in /  994.5 hPa -
Precipitation: 0.00 in /  0 mm    
Historical Graphs
 
 
Tabular Data for February 22, 2012
Time Temperature Dew Point Pressure Wind Wind Speed Wind Gust Humidity Daily Rainfall
00:04 32.8 °F /  0.4 °C 28.2 °F /  -2.1 °C 29.71in /  1006hPa SSW 7.0mph /  11.3km/h 13.0mph /  20.9km/h 83% 0.00in /  0mm
00:09 33.0 °F /  0.6 °C 28.4 °F /  -2 °C 29.70in /  1005.6hPa SSW 7.0mph /  11.3km/h 13.0mph /  20.9km/h 83% 0.00in /  0mm
00:14 33.2 °F /  0.7 °C 28.3 °F /  -2.1 °C 29.70in /  1005.6hPa SSW 6.0mph /  9.7km/h 13.0mph /  20.9km/h 82% 0.00in /  0mm
00:19 33.4 °F /  0.8 °C 28.5 °F /  -1.9 °C 29.70in /  1005.6hPa SSW 6.0mph /  9.7km/h 16.0mph /  25.7km/h 82% 0.00in /  0mm
00:24 33.6 °F /  0.9 °C 28.7 °F /  -1.8 °C 29.70in /  1005.6hPa SSW 7.0mph /  11.3km/h 20.0mph /  32.2km/h 82% 0.00in /  0mm
00:29 33.8 °F /  1 °C 28.6 °F /  -1.9 °C 29.70in /  1005.6hPa SSW 6.0mph /  9.7km/h 20.0mph /  32.2km/h 81% 0.00in /  0mm
00:34 33.9 °F /  1.1 °C 28.7 °F /  -1.8 °C 29.70in /  1005.6hPa SSW 6.0mph /  9.7km/h 17.0mph /  27.4km/h 81% 0.00in /  0mm
00:39 34.0 °F /  1.1 °C 28.8 °F /  -1.8 °C 29.69in /  1005.3hPa SSW 7.0mph /  11.3km/h 13.0mph /  20.9km/h 81% 0.00in /  0mm
00:44 34.3 °F /  1.3 °C 29.1 °F /  -1.6 °C 29.69in /  1005.3hPa SSW 10.0mph /  16.1km/h 17.0mph /  27.4km/h 81% 0.00in /  0mm
00:49 34.4 °F /  1.3 °C 29.2 °F /  -1.6 °C 29.69in /  1005.3hPa SSW 7.0mph /  11.3km/h 17.0mph /  27.4km/h 81% 0.00in /  0mm
00:54 34.4 °F /  1.3 °C 29.2 °F /  -1.6 °C 29.68in /  1005hPa SSW 7.0mph /  11.3km/h 13.0mph /  20.9km/h 81% 0.00in /  0mm
00:59 34.4 °F /  1.3 °C 28.9 °F /  -1.7 °C 29.68in /  1005hPa SSW 7.0mph /  11.3km/h 14.0mph /  22.5km/h 80% 0.00in /  0mm
01:04 34.7 °F /  1.5 °C 29.2 °F /  -1.6 °C 29.68in /  1005hPa SSW 6.0mph /  9.7km/h 14.0mph /  22.5km/h 80% 0.00in /  0mm
01:09 34.8 °F /  1.6 °C 29.3 °F /  -1.5 °C 29.68in /  1005hPa SSW 5.0mph /  8km/h 15.0mph /  24.1km/h 80% 0.00in /  0mm
01:14 34.9 °F /  1.6 °C 29.4 °F /  -1.4 °C 29.67in /  1004.6hPa SSW 5.0mph /  8km/h 15.0mph /  24.1km/h 80% 0.00in /  0mm
01:19 35.0 °F /  1.7 °C 29.5 °F /  -1.4 °C 29.67in /  1004.6hPa SSW 6.0mph /  9.7km/h 13.0mph /  20.9km/h 80% 0.00in /  0mm
01:24 35.1 °F /  1.7 °C 29.2 °F /  -1.6 °C 29.67in /  1004.6hPa SSW 7.0mph /  11.3km/h 13.0mph /  20.9km/h 79% 0.00in /  0mm
01:29 35.2 °F /  1.8 °C 29.3 °F /  -1.5 °C 29.67in /  1004.6hPa SSW 5.0mph /  8km/h 15.0mph /  24.1km/h 79% 0.00in /  0mm
01:34 35.3 °F /  1.8 °C 29.4 °F /  -1.4 °C 29.67in /  1004.6hPa SSW 7.0mph /  11.3km/h 15.0mph /  24.1km/h 79% 0.00in /  0mm
01:40 35.3 °F /  1.8 °C 29.4 °F /  -1.4 °C 29.67in /  1004.6hPa SSW 7.0mph /  11.3km/h 15.0mph /  24.1km/h 79% 0.00in /  0mm
01:49 35.5 °F /  1.9 °C 29.6 °F /  -1.3 °C 29.66in /  1004.3hPa SSW 5.0mph /  8km/h 15.0mph /  24.1km/h 79% 0.00in /  0mm
01:54 35.5 °F /  1.9 °C 29.6 °F /  -1.3 °C 29.66in /  1004.3hPa SSW 8.0mph /  12.9km/h 15.0mph /  24.1km/h 79% 0.00in /  0mm
01:59 35.6 °F /  2 °C 29.7 °F /  -1.3 °C 29.65in /  1003.9hPa SSW 6.0mph /  9.7km/h 15.0mph /  24.1km/h 79% 0.00in /  0mm
02:04 35.6 °F /  2 °C 29.7 °F /  -1.3 °C 29.65in /  1003.9hPa SSW 7.0mph /  11.3km/h 17.0mph /  27.4km/h 79% 0.00in /  0mm
02:09 35.6 °F /  2 °C 29.7 °F /  -1.3 °C 29.64in /  1003.6hPa SSW 8.0mph /  12.9km/h 17.0mph /  27.4km/h 79% 0.00in /  0mm
02:14 35.8 °F /  2.1 °C 29.6 °F /  -1.3 °C 29.64in /  1003.6hPa SSW 9.0mph /  14.5km/h 17.0mph /  27.4km/h 78% 0.00in /  0mm
02:19 35.8 °F /  2.1 °C 29.6 °F /  -1.3 °C 29.64in /  1003.6hPa SSW 9.0mph /  14.5km/h 17.0mph /  27.4km/h 78% 0.00in /  0mm
02:24 35.8 °F /  2.1 °C 29.6 °F /  -1.3 °C 29.64in /  1003.6hPa SSW 8.0mph /  12.9km/h 18.0mph /  29km/h 78% 0.00in /  0mm
02:29 35.9 °F /  2.2 °C 29.7 °F /  -1.3 °C 29.63in /  1003.3hPa SSW 8.0mph /  12.9km/h 18.0mph /  29km/h 78% 0.00in /  0mm
02:35 35.9 °F /  2.2 °C 29.7 °F /  -1.3 °C 29.63in /  1003.3hPa SSW 11.0mph /  17.7km/h 21.0mph /  33.8km/h 78% 0.00in /  0mm
02:44 36.0 °F /  2.2 °C 29.8 °F /  -1.2 °C 29.63in /  1003.3hPa SSW 10.0mph /  16.1km/h 18.0mph /  29km/h 78% 0.00in /  0mm
02:49 35.9 °F /  2.2 °C 29.7 °F /  -1.3 °C 29.62in /  1002.9hPa SSW 5.0mph /  8km/h 18.0mph /  29km/h 78% 0.00in /  0mm
02:54 35.8 °F /  2.1 °C 29.6 °F /  -1.3 °C 29.62in /  1002.9hPa SSW 8.0mph /  12.9km/h 21.0mph /  33.8km/h 78% 0.00in /  0mm
02:59 35.7 °F /  2.1 °C 29.8 °F /  -1.2 °C 29.62in /  1002.9hPa SSW 11.0mph /  17.7km/h 21.0mph /  33.8km/h 79% 0.00in /  0mm
03:04 35.8 °F /  2.1 °C 29.9 °F /  -1.2 °C 29.61in /  1002.6hPa SSW 9.0mph /  14.5km/h 21.0mph /  33.8km/h 79% 0.00in /  0mm
03:09 35.7 °F /  2.1 °C 29.8 °F /  -1.2 °C 29.61in /  1002.6hPa SSW 9.0mph /  14.5km/h 17.0mph /  27.4km/h 79% 0.00in /  0mm
03:14 35.7 °F /  2.1 °C 29.8 °F /  -1.2 °C 29.61in /  1002.6hPa SSW 8.0mph /  12.9km/h 15.0mph /  24.1km/h 79% 0.00in /  0mm
03:19 35.7 °F /  2.1 °C 29.8 °F /  -1.2 °C 29.61in /  1002.6hPa SSW 7.0mph /  11.3km/h 18.0mph /  29km/h 79% 0.00in /  0mm
03:24 35.7 °F /  2.1 °C 29.8 °F /  -1.2 °C 29.61in /  1002.6hPa SW 6.0mph /  9.7km/h 18.0mph /  29km/h 79% 0.00in /  0mm
03:29 35.8 °F /  2.1 °C 29.9 °F /  -1.2 °C 29.61in /  1002.6hPa SSW 6.0mph /  9.7km/h 15.0mph /  24.1km/h 79% 0.00in /  0mm
03:35 35.7 °F /  2.1 °C 29.8 °F /  -1.2 °C 29.60in /  1002.3hPa SSW 6.0mph /  9.7km/h 13.0mph /  20.9km/h 79% 0.00in /  0mm
03:44 35.9 °F /  2.2 °C 29.7 °F /  -1.3 °C 29.60in /  1002.3hPa SSW 7.0mph /  11.3km/h 16.0mph /  25.7km/h 78% 0.00in /  0mm
03:49 35.9 °F /  2.2 °C 29.7 °F /  -1.3 °C 29.60in /  1002.3hPa SSW 9.0mph /  14.5km/h 16.0mph /  25.7km/h 78% 0.00in /  0mm
03:54 36.0 °F /  2.2 °C 29.8 °F /  -1.2 °C 29.59in /  1001.9hPa SSW 7.0mph /  11.3km/h 16.0mph /  25.7km/h 78% 0.00in /  0mm
03:59 36.0 °F /  2.2 °C 29.8 °F /  -1.2 °C 29.59in /  1001.9hPa SSW 11.0mph /  17.7km/h 18.0mph /  29km/h 78% 0.00in /  0mm
04:04 36.0 °F /  2.2 °C 29.8 °F /  -1.2 °C 29.59in /  1001.9hPa SSW 7.0mph /  11.3km/h 18.0mph /  29km/h 78% 0.00in /  0mm
04:09 36.0 °F /  2.2 °C 29.8 °F /  -1.2 °C 29.59in /  1001.9hPa SW 5.0mph /  8km/h 14.0mph /  22.5km/h 78% 0.00in /  0mm
04:14 36.0 °F /  2.2 °C 29.8 °F /  -1.2 °C 29.59in /  1001.9hPa SSW 6.0mph /  9.7km/h 13.0mph /  20.9km/h 78% 0.00in /  0mm
04:20 36.0 °F /  2.2 °C 29.8 °F /  -1.2 °C 29.59in /  1001.9hPa SSW 8.0mph /  12.9km/h 16.0mph /  25.7km/h 78% 0.00in /  0mm
04:29 36.1 °F /  2.3 °C 29.6 °F /  -1.3 °C 29.58in /  1001.6hPa SSW 7.0mph /  11.3km/h 18.0mph /  29km/h 77% 0.00in /  0mm
04:34 36.2 °F /  2.3 °C 29.7 °F /  -1.3 °C 29.58in /  1001.6hPa SSW 10.0mph /  16.1km/h 16.0mph /  25.7km/h 77% 0.00in /  0mm
04:39 36.2 °F /  2.3 °C 29.7 °F /  -1.3 °C 29.58in /  1001.6hPa SSW 6.0mph /  9.7km/h 16.0mph /  25.7km/h 77% 0.00in /  0mm
04:44 36.2 °F /  2.3 °C 29.7 °F /  -1.3 °C 29.58in /  1001.6hPa SSW 7.0mph /  11.3km/h 13.0mph /  20.9km/h 77% 0.00in /  0mm
04:49 36.2 °F /  2.3 °C 29.7 °F /  -1.3 °C 29.58in /  1001.6hPa SSW 6.0mph /  9.7km/h 14.0mph /  22.5km/h 77% 0.00in /  0mm
04:54 36.2 °F /  2.3 °C 29.7 °F /  -1.3 °C 29.58in /  1001.6hPa SSW 6.0mph /  9.7km/h 16.0mph /  25.7km/h 77% 0.00in /  0mm
04:59 36.3 °F /  2.4 °C 29.8 °F /  -1.2 °C 29.58in /  1001.6hPa SSW 8.0mph /  12.9km/h 18.0mph /  29km/h 77% 0.00in /  0mm
05:04 36.3 °F /  2.4 °C 29.5 °F /  -1.4 °C 29.58in /  1001.6hPa SSW 6.0mph /  9.7km/h 18.0mph /  29km/h 76% 0.00in /  0mm
05:09 36.3 °F /  2.4 °C 29.8 °F /  -1.2 °C 29.57in /  1001.2hPa SSW 6.0mph /  9.7km/h 16.0mph /  25.7km/h 77% 0.00in /  0mm
05:14 36.2 °F /  2.3 °C 29.7 °F /  -1.3 °C 29.57in /  1001.2hPa SSW 5.0mph /  8km/h 15.0mph /  24.1km/h 77% 0.00in /  0mm
05:19 36.3 °F /  2.4 °C 29.8 °F /  -1.2 °C 29.57in /  1001.2hPa SSW 8.0mph /  12.9km/h 16.0mph /  25.7km/h 77% 0.00in /  0mm
05:24 36.4 °F /  2.4 °C 29.9 °F /  -1.2 °C 29.57in /  1001.2hPa SSW 6.0mph /  9.7km/h 19.0mph /  30.6km/h 77% 0.00in /  0mm
05:30 36.4 °F /  2.4 °C 29.6 °F /  -1.3 °C 29.57in /  1001.2hPa SSW 8.0mph /  12.9km/h 19.0mph /  30.6km/h 76% 0.00in /  0mm
05:39 36.4 °F /  2.4 °C 29.6 °F /  -1.3 °C 29.56in /  1000.9hPa SSW 11.0mph /  17.7km/h 18.0mph /  29km/h 76% 0.00in /  0mm
05:44 36.5 °F /  2.5 °C 29.7 °F /  -1.3 °C 29.57in /  1001.2hPa SSW 8.0mph /  12.9km/h 18.0mph /  29km/h 76% 0.00in /  0mm
05:49 36.4 °F /  2.4 °C 29.6 °F /  -1.3 °C 29.57in /  1001.2hPa SSW 9.0mph /  14.5km/h 15.0mph /  24.1km/h 76% 0.00in /  0mm
05:54 36.4 °F /  2.4 °C 29.9 °F /  -1.2 °C 29.57in /  1001.2hPa SSW 9.0mph /  14.5km/h 17.0mph /  27.4km/h 77% 0.00in /  0mm
05:59 36.5 °F /  2.5 °C 29.7 °F /  -1.3 °C 29.56in /  1000.9hPa SSW 10.0mph /  16.1km/h 17.0mph /  27.4km/h 76% 0.00in /  0mm
06:04 36.5 °F /  2.5 °C 30.0 °F /  -1.1 °C 29.56in /  1000.9hPa SSW 7.0mph /  11.3km/h 16.0mph /  25.7km/h 77% 0.00in /  0mm
06:09 36.4 °F /  2.4 °C 29.9 °F /  -1.2 °C 29.56in /  1000.9hPa SSW 6.0mph /  9.7km/h 15.0mph /  24.1km/h 77% 0.00in /  0mm
06:14 36.4 °F /  2.4 °C 29.9 °F /  -1.2 °C 29.56in /  1000.9hPa SSW 7.0mph /  11.3km/h 19.0mph /  30.6km/h 77% 0.00in /  0mm
06:19 36.4 °F /  2.4 °C 29.9 °F /  -1.2 °C 29.56in /  1000.9hPa SSW 7.0mph /  11.3km/h 19.0mph /  30.6km/h 77% 0.00in /  0mm
06:24 36.5 °F /  2.5 °C 30.0 °F /  -1.1 °C 29.56in /  1000.9hPa SSW 9.0mph /  14.5km/h 16.0mph /  25.7km/h 77% 0.00in /  0mm
06:29 36.5 °F /  2.5 °C 30.0 °F /  -1.1 °C 29.56in /  1000.9hPa SSW 8.0mph /  12.9km/h 16.0mph /  25.7km/h 77% 0.00in /  0mm
06:34 36.5 °F /  2.5 °C 30.0 °F /  -1.1 °C 29.56in /  1000.9hPa SW 8.0mph /  12.9km/h 15.0mph /  24.1km/h 77% 0.00in /  0mm
06:39 36.6 °F /  2.6 °C 30.1 °F /  -1.1 °C 29.56in /  1000.9hPa SSW 8.0mph /  12.9km/h 15.0mph /  24.1km/h 77% 0.00in /  0mm
06:44 36.6 °F /  2.6 °C 30.1 °F /  -1.1 °C 29.56in /  1000.9hPa SSW 9.0mph /  14.5km/h 15.0mph /  24.1km/h 77% 0.00in /  0mm
06:49 36.6 °F /  2.6 °C 30.1 °F /  -1.1 °C 29.56in /  1000.9hPa SSW 7.0mph /  11.3km/h 15.0mph /  24.1km/h 77% 0.00in /  0mm
06:54 36.6 °F /  2.6 °C 30.1 °F /  -1.1 °C 29.56in /  1000.9hPa SSW 9.0mph /  14.5km/h 16.0mph /  25.7km/h 77% 0.00in /  0mm
06:59 36.6 °F /  2.6 °C 30.1 °F /  -1.1 °C 29.56in /  1000.9hPa SSW 9.0mph /  14.5km/h 20.0mph /  32.2km/h 77% 0.00in /  0mm
07:04 36.7 °F /  2.6 °C 30.2 °F /  -1 °C 29.56in /  1000.9hPa SSW 8.0mph /  12.9km/h 20.0mph /  32.2km/h 77% 0.00in /  0mm
07:09 36.7 °F /  2.6 °C 30.2 °F /  -1 °C 29.56in /  1000.9hPa SSW 10.0mph /  16.1km/h 16.0mph /  25.7km/h 77% 0.00in /  0mm
07:14 36.8 °F /  2.7 °C 30.3 °F /  -0.9 °C 29.56in /  1000.9hPa SSW 8.0mph /  12.9km/h 16.0mph /  25.7km/h 77% 0.00in /  0mm
07:19 36.8 °F /  2.7 °C 30.3 °F /  -0.9 °C 29.55in /  1000.6hPa SSW 6.0mph /  9.7km/h 14.0mph /  22.5km/h 77% 0.00in /  0mm
07:24 36.8 °F /  2.7 °C 30.3 °F /  -0.9 °C 29.56in /  1000.9hPa SSW 8.0mph /  12.9km/h 14.0mph /  22.5km/h 77% 0.00in /  0mm
07:29 36.8 °F /  2.7 °C 30.3 °F /  -0.9 °C 29.56in /  1000.9hPa SSW 7.0mph /  11.3km/h 14.0mph /  22.5km/h 77% 0.00in /  0mm
07:34 36.9 °F /  2.7 °C 30.4 °F /  -0.9 °C 29.56in /  1000.9hPa SSW 7.0mph /  11.3km/h 14.0mph /  22.5km/h 77% 0.00in /  0mm
07:39 36.9 °F /  2.7 °C 30.4 °F /  -0.9 °C 29.56in /  1000.9hPa SSW 8.0mph /  12.9km/h 14.0mph /  22.5km/h 77% 0.00in /  0mm
07:45 37.0 °F /  2.8 °C 30.5 °F /  -0.8 °C 29.56in /  1000.9hPa SSW 8.0mph /  12.9km/h 15.0mph /  24.1km/h 77% 0.00in /  0mm
07:54 37.2 °F /  2.9 °C 30.7 °F /  -0.7 °C 29.56in /  1000.9hPa SSW 7.0mph /  11.3km/h 18.0mph /  29km/h 77% 0.00in /  0mm
07:59 37.2 °F /  2.9 °C 30.7 °F /  -0.7 °C 29.56in /  1000.9hPa SSW 5.0mph /  8km/h 17.0mph /  27.4km/h 77% 0.00in /  0mm
08:04 37.3 °F /  2.9 °C 30.8 °F /  -0.7 °C 29.56in /  1000.9hPa SSW 6.0mph /  9.7km/h 14.0mph /  22.5km/h 77% 0.00in /  0mm
08:09 37.3 °F /  2.9 °C 30.8 °F /  -0.7 °C 29.55in /  1000.6hPa SW 9.0mph /  14.5km/h 14.0mph /  22.5km/h 77% 0.00in /  0mm
08:14 37.4 °F /  3 °C 30.9 °F /  -0.6 °C 29.56in /  1000.9hPa SW 6.0mph /  9.7km/h 14.0mph /  22.5km/h 77% 0.00in /  0mm
08:19 37.4 °F /  3 °C 30.9 °F /  -0.6 °C 29.55in /  1000.6hPa SSW 7.0mph /  11.3km/h 13.0mph /  20.9km/h 77% 0.00in /  0mm
08:24 37.5 °F /  3.1 °C 30.6 °F /  -0.8 °C 29.55in /  1000.6hPa SSW 9.0mph /  14.5km/h 16.0mph /  25.7km/h 76% 0.00in /  0mm
08:29 37.5 °F /  3.1 °C 30.6 °F /  -0.8 °C 29.55in /  1000.6hPa SSW 8.0mph /  12.9km/h 16.0mph /  25.7km/h 76% 0.00in /  0mm
08:34 37.5 °F /  3.1 °C 30.6 °F /  -0.8 °C 29.55in /  1000.6hPa SSW 8.0mph /  12.9km/h 13.0mph /  20.9km/h 76% 0.00in /  0mm
08:39 37.5 °F /  3.1 °C 30.6 °F /  -0.8 °C 29.55in /  1000.6hPa SSW 5.0mph /  8km/h 13.0mph /  20.9km/h 76% 0.00in /  0mm
08:44 37.5 °F /  3.1 °C 30.6 °F /  -0.8 °C 29.55in /  1000.6hPa SSW 7.0mph /  11.3km/h 15.0mph /  24.1km/h 76% 0.00in /  0mm
08:49 37.5 °F /  3.1 °C 30.6 °F /  -0.8 °C 29.55in /  1000.6hPa SSW 6.0mph /  9.7km/h 15.0mph /  24.1km/h 76% 0.00in /  0mm
08:54 37.6 °F /  3.1 °C 30.7 °F /  -0.7 °C 29.55in /  1000.6hPa SSW 7.0mph /  11.3km/h 13.0mph /  20.9km/h 76% 0.00in /  0mm
08:59 37.6 °F /  3.1 °C 30.7 °F /  -0.7 °C 29.55in /  1000.6hPa SSW 6.0mph /  9.7km/h 13.0mph /  20.9km/h 76% 0.00in /  0mm
09:04 37.7 °F /  3.2 °C 30.8 °F /  -0.7 °C 29.55in /  1000.6hPa SSW 7.0mph /  11.3km/h 14.0mph /  22.5km/h 76% 0.00in /  0mm
09:09 37.9 °F /  3.3 °C 31.0 °F /  -0.6 °C 29.55in /  1000.6hPa SSW 5.0mph /  8km/h 14.0mph /  22.5km/h 76% 0.00in /  0mm
09:14 38.0 °F /  3.3 °C 31.1 °F /  -0.5 °C 29.55in /  1000.6hPa SW 7.0mph /  11.3km/h 12.0mph /  19.3km/h 76% 0.00in /  0mm
09:19 38.1 °F /  3.4 °C 31.2 °F /  -0.4 °C 29.55in /  1000.6hPa SSW 6.0mph /  9.7km/h 12.0mph /  19.3km/h 76% 0.00in /  0mm
09:24 38.2 °F /  3.4 °C 31.0 °F /  -0.6 °C 29.55in /  1000.6hPa SW 9.0mph /  14.5km/h 13.0mph /  20.9km/h 75% 0.00in /  0mm
09:29 38.3 °F /  3.5 °C 31.1 °F /  -0.5 °C 29.55in /  1000.6hPa SSW 8.0mph /  12.9km/h 14.0mph /  22.5km/h 75% 0.00in /  0mm
09:34 38.6 °F /  3.7 °C 31.4 °F /  -0.3 °C 29.55in /  1000.6hPa SW 5.0mph /  8km/h 14.0mph /  22.5km/h 75% 0.00in /  0mm
09:39 38.7 °F /  3.7 °C 31.5 °F /  -0.3 °C 29.55in /  1000.6hPa SW 7.0mph /  11.3km/h 13.0mph /  20.9km/h 75% 0.00in /  0mm
09:44 38.8 °F /  3.8 °C 31.6 °F /  -0.2 °C 29.55in /  1000.6hPa SW 7.0mph /  11.3km/h 13.0mph /  20.9km/h 75% 0.00in /  0mm
09:49 38.8 °F /  3.8 °C 31.2 °F /  -0.4 °C 29.55in /  1000.6hPa SSW 10.0mph /  16.1km/h 15.0mph /  24.1km/h 74% 0.00in /  0mm
09:54 38.9 °F /  3.8 °C 31.7 °F /  -0.2 °C 29.55in /  1000.6hPa SSW 6.0mph /  9.7km/h 15.0mph /  24.1km/h 75% 0.00in /  0mm
09:59 39.3 °F /  4.1 °C 31.7 °F /  -0.2 °C 29.54in /  1000.2hPa SW 6.0mph /  9.7km/h 14.0mph /  22.5km/h 74% 0.00in /  0mm
10:04 40.3 °F /  4.6 °C 32.3 °F /  0.2 °C 29.54in /  1000.2hPa SW 7.0mph /  11.3km/h 13.0mph /  20.9km/h 73% 0.00in /  0mm
10:09 41.6 °F /  5.3 °C 32.5 °F /  0.3 °C 29.54in /  1000.2hPa SSW 5.0mph /  8km/h 13.0mph /  20.9km/h 70% 0.00in /  0mm
10:14 42.1 °F /  5.6 °C 32.7 °F /  0.4 °C 29.54in /  1000.2hPa WSW 7.0mph /  11.3km/h 14.0mph /  22.5km/h 69% 0.00in /  0mm
10:19 42.7 °F /  5.9 °C 32.1 °F /  0.1 °C 29.55in /  1000.6hPa WSW 6.0mph /  9.7km/h 14.0mph /  22.5km/h 66% 0.00in /  0mm
10:24 42.1 °F /  5.6 °C 31.2 °F /  -0.4 °C 29.54in /  1000.2hPa WSW 8.0mph /  12.9km/h 16.0mph /  25.7km/h 65% 0.00in /  0mm
10:29 42.4 °F /  5.8 °C 31.1 °F /  -0.5 °C 29.54in /  1000.2hPa WSW 7.0mph /  11.3km/h 16.0mph /  25.7km/h 64% 0.00in /  0mm
10:34 43.2 °F /  6.2 °C 31.1 °F /  -0.5 °C 29.54in /  1000.2hPa WSW 7.0mph /  11.3km/h 15.0mph /  24.1km/h 62% 0.00in /  0mm
10:39 43.8 °F /  6.6 °C 31.6 °F /  -0.2 °C 29.54in /  1000.2hPa WSW 8.0mph /  12.9km/h 13.0mph /  20.9km/h 62% 0.00in /  0mm
10:45 43.5 °F /  6.4 °C 30.5 °F /  -0.8 °C 29.54in /  1000.2hPa WSW 8.0mph /  12.9km/h 16.0mph /  25.7km/h 60% 0.00in /  0mm
10:54 43.0 °F /  6.1 °C 30.9 °F /  -0.6 °C 29.54in /  1000.2hPa WSW 6.0mph /  9.7km/h 15.0mph /  24.1km/h 62% 0.00in /  0mm
10:59 43.7 °F /  6.5 °C 31.1 °F /  -0.5 °C 29.54in /  1000.2hPa West 7.0mph /  11.3km/h 13.0mph /  20.9km/h 61% 0.00in /  0mm
11:04 43.2 °F /  6.2 °C 30.7 °F /  -0.7 °C 29.54in /  1000.2hPa West 8.0mph /  12.9km/h 16.0mph /  25.7km/h 61% 0.00in /  0mm
11:09 42.9 °F /  6.1 °C 30.8 °F /  -0.7 °C 29.54in /  1000.2hPa West 7.0mph /  11.3km/h 16.0mph /  25.7km/h 62% 0.00in /  0mm
11:14 42.9 °F /  6.1 °C 30.0 °F /  -1.1 °C 29.54in /  1000.2hPa WSW 6.0mph /  9.7km/h 12.0mph /  19.3km/h 60% 0.00in /  0mm
11:19 43.3 °F /  6.3 °C 29.9 °F /  -1.2 °C 29.54in /  1000.2hPa West 8.0mph /  12.9km/h 18.0mph /  29km/h 59% 0.00in /  0mm
11:24 43.0 °F /  6.1 °C 29.2 °F /  -1.6 °C 29.54in /  1000.2hPa West 10.0mph /  16.1km/h 20.0mph /  32.2km/h 58% 0.00in /  0mm
11:29 42.4 °F /  5.8 °C 28.7 °F /  -1.8 °C 29.54in /  1000.2hPa WSW 9.0mph /  14.5km/h 22.0mph /  35.4km/h 58% 0.00in /  0mm
11:34 42.2 °F /  5.7 °C 28.9 °F /  -1.7 °C 29.55in /  1000.6hPa West 8.0mph /  12.9km/h 22.0mph /  35.4km/h 59% 0.00in /  0mm
11:40 42.1 °F /  5.6 °C 28.4 °F /  -2 °C 29.54in /  1000.2hPa WSW 8.0mph /  12.9km/h 18.0mph /  29km/h 58% 0.00in /  0mm
11:49 42.5 °F /  5.8 °C 27.9 °F /  -2.3 °C 29.54in /  1000.2hPa West 8.0mph /  12.9km/h 16.0mph /  25.7km/h 56% 0.00in /  0mm
11:54 42.7 °F /  5.9 °C 28.1 °F /  -2.2 °C 29.53in /  999.9hPa WSW 8.0mph /  12.9km/h 18.0mph /  29km/h 56% 0.00in /  0mm
11:59 43.2 °F /  6.2 °C 28.1 °F /  -2.2 °C 29.53in /  999.9hPa West 6.0mph /  9.7km/h 18.0mph /  29km/h 55% 0.00in /  0mm
12:05 43.4 °F /  6.3 °C 27.9 °F /  -2.3 °C 29.53in /  999.9hPa West 7.0mph /  11.3km/h 18.0mph /  29km/h 54% 0.00in /  0mm
12:14 44.0 °F /  6.7 °C 27.5 °F /  -2.5 °C 29.52in /  999.5hPa WSW 8.0mph /  12.9km/h 15.0mph /  24.1km/h 52% 0.00in /  0mm
12:19 44.0 °F /  6.7 °C 27.5 °F /  -2.5 °C 29.52in /  999.5hPa WNW 12.0mph /  19.3km/h 17.0mph /  27.4km/h 52% 0.00in /  0mm
12:24 43.8 °F /  6.6 °C 27.3 °F /  -2.6 °C 29.52in /  999.5hPa WSW 7.0mph /  11.3km/h 17.0mph /  27.4km/h 52% 0.00in /  0mm
12:29 44.6 °F /  7 °C 27.6 °F /  -2.4 °C 29.51in /  999.2hPa West 7.0mph /  11.3km/h 17.0mph /  27.4km/h 51% 0.00in /  0mm
12:35 44.5 °F /  6.9 °C 27.0 °F /  -2.8 °C 29.51in /  999.2hPa West 8.0mph /  12.9km/h 17.0mph /  27.4km/h 50% 0.00in /  0mm
12:44 43.2 °F /  6.2 °C 25.3 °F /  -3.7 °C 29.51in /  999.2hPa West 8.0mph /  12.9km/h 16.0mph /  25.7km/h 49% 0.00in /  0mm
12:49 42.7 °F /  5.9 °C 25.4 °F /  -3.7 °C 29.50in /  998.9hPa West 10.0mph /  16.1km/h 15.0mph /  24.1km/h 50% 0.00in /  0mm
12:54 42.3 °F /  5.7 °C 25.0 °F /  -3.9 °C 29.50in /  998.9hPa West 8.0mph /  12.9km/h 15.0mph /  24.1km/h 50% 0.00in /  0mm
12:59 42.2 °F /  5.7 °C 25.4 °F /  -3.7 °C 29.50in /  998.9hPa WNW 6.0mph /  9.7km/h 15.0mph /  24.1km/h 51% 0.00in /  0mm
13:04 42.6 °F /  5.9 °C 25.3 °F /  -3.7 °C 29.50in /  998.9hPa WSW 7.0mph /  11.3km/h 14.0mph /  22.5km/h 50% 0.00in /  0mm
13:09 43.5 °F /  6.4 °C 26.1 °F /  -3.3 °C 29.49in /  998.5hPa SW 6.0mph /  9.7km/h 12.0mph /  19.3km/h 50% 0.00in /  0mm
13:14 44.2 °F /  6.8 °C 26.3 °F /  -3.2 °C 29.49in /  998.5hPa West 5.0mph /  8km/h 9.0mph /  14.5km/h 49% 0.00in /  0mm
13:19 44.2 °F /  6.8 °C 26.3 °F /  -3.2 °C 29.48in /  998.2hPa WSW 4.0mph /  6.4km/h 11.0mph /  17.7km/h 49% 0.00in /  0mm
13:24 44.0 °F /  6.7 °C 25.6 °F /  -3.6 °C 29.47in /  997.9hPa West 6.0mph /  9.7km/h 12.0mph /  19.3km/h 48% 0.00in /  0mm
13:29 44.0 °F /  6.7 °C 25.6 °F /  -3.6 °C 29.47in /  997.9hPa SW 8.0mph /  12.9km/h 13.0mph /  20.9km/h 48% 0.00in /  0mm
13:35 44.1 °F /  6.7 °C 25.7 °F /  -3.5 °C 29.47in /  997.9hPa SW 7.0mph /  11.3km/h 17.0mph /  27.4km/h 48% 0.00in /  0mm
13:44 44.3 °F /  6.8 °C 25.3 °F /  -3.7 °C 29.46in /  997.5hPa SW 6.0mph /  9.7km/h 13.0mph /  20.9km/h 47% 0.00in /  0mm
13:49 44.2 °F /  6.8 °C 26.3 °F /  -3.2 °C 29.46in /  997.5hPa SSW 5.0mph /  8km/h 12.0mph /  19.3km/h 49% 0.00in /  0mm
13:54 44.3 °F /  6.8 °C 25.8 °F /  -3.4 °C 29.46in /  997.5hPa SW 8.0mph /  12.9km/h 13.0mph /  20.9km/h 48% 0.00in /  0mm
13:59 44.4 °F /  6.9 °C 26.4 °F /  -3.1 °C 29.46in /  997.5hPa SSW 7.0mph /  11.3km/h 13.0mph /  20.9km/h 49% 0.00in /  0mm
14:04 44.3 °F /  6.8 °C 26.3 °F /  -3.2 °C 29.46in /  997.5hPa SW 5.0mph /  8km/h 12.0mph /  19.3km/h 49% 0.00in /  0mm
14:09 43.9 °F /  6.6 °C 26.0 °F /  -3.3 °C 29.47in /  997.9hPa SSW 8.0mph /  12.9km/h 14.0mph /  22.5km/h 49% 0.00in /  0mm
14:14 43.4 °F /  6.3 °C 25.5 °F /  -3.6 °C 29.46in /  997.5hPa SW 9.0mph /  14.5km/h 16.0mph /  25.7km/h 49% 0.00in /  0mm
14:19 43.3 °F /  6.3 °C 25.4 °F /  -3.7 °C 29.46in /  997.5hPa SW 10.0mph /  16.1km/h 17.0mph /  27.4km/h 49% 0.00in /  0mm
14:24 43.3 °F /  6.3 °C 25.4 °F /  -3.7 °C 29.46in /  997.5hPa SW 6.0mph /  9.7km/h 17.0mph /  27.4km/h 49% 0.00in /  0mm
14:29 43.3 °F /  6.3 °C 25.4 °F /  -3.7 °C 29.46in /  997.5hPa SW 8.0mph /  12.9km/h 14.0mph /  22.5km/h 49% 0.00in /  0mm
14:35 43.5 °F /  6.4 °C 26.1 °F /  -3.3 °C 29.46in /  997.5hPa SW 7.0mph /  11.3km/h 14.0mph /  22.5km/h 50% 0.00in /  0mm
14:44 43.7 °F /  6.5 °C 25.8 °F /  -3.4 °C 29.45in /  997.2hPa SW 6.0mph /  9.7km/h 17.0mph /  27.4km/h 49% 0.00in /  0mm
14:49 43.8 °F /  6.6 °C 25.4 °F /  -3.7 °C 29.45in /  997.2hPa SSW 6.0mph /  9.7km/h 17.0mph /  27.4km/h 48% 0.00in /  0mm
14:54 44.3 °F /  6.8 °C 25.3 °F /  -3.7 °C 29.45in /  997.2hPa SW 10.0mph /  16.1km/h 17.0mph /  27.4km/h 47% 0.00in /  0mm
14:59 45.1 °F /  7.3 °C 26.1 °F /  -3.3 °C 29.44in /  996.8hPa SW 4.0mph /  6.4km/h 17.0mph /  27.4km/h 47% 0.00in /  0mm
15:04 45.2 °F /  7.3 °C 25.6 °F /  -3.6 °C 29.44in /  996.8hPa SW 9.0mph /  14.5km/h 14.0mph /  22.5km/h 46% 0.00in /  0mm
15:09 44.9 °F /  7.2 °C 25.9 °F /  -3.4 °C 29.44in /  996.8hPa SW 6.0mph /  9.7km/h 14.0mph /  22.5km/h 47% 0.00in /  0mm
15:14 44.3 °F /  6.8 °C 25.3 °F /  -3.7 °C 29.44in /  996.8hPa SSW 6.0mph /  9.7km/h 16.0mph /  25.7km/h 47% 0.00in /  0mm
15:19 43.9 °F /  6.6 °C 25.5 °F /  -3.6 °C 29.44in /  996.8hPa SSW 9.0mph /  14.5km/h 17.0mph /  27.4km/h 48% 0.00in /  0mm
15:24 43.5 °F /  6.4 °C 25.1 °F /  -3.8 °C 29.44in /  996.8hPa SW 10.0mph /  16.1km/h 17.0mph /  27.4km/h 48% 0.00in /  0mm
15:29 43.1 °F /  6.2 °C 25.2 °F /  -3.8 °C 29.44in /  996.8hPa SSW 8.0mph /  12.9km/h 17.0mph /  27.4km/h 49% 0.00in /  0mm
15:34 42.9 °F /  6.1 °C 25.5 °F /  -3.6 °C 29.44in /  996.8hPa SSW 6.0mph /  9.7km/h 17.0mph /  27.4km/h 50% 0.00in /  0mm
15:39 42.8 °F /  6 °C 25.4 °F /  -3.7 °C 29.43in /  996.5hPa SSW 8.0mph /  12.9km/h 14.0mph /  22.5km/h 50% 0.00in /  0mm
15:44 42.7 °F /  5.9 °C 25.8 °F /  -3.4 °C 29.44in /  996.8hPa SW 6.0mph /  9.7km/h 14.0mph /  22.5km/h 51% 0.00in /  0mm
15:49 42.5 °F /  5.8 °C 25.6 °F /  -3.6 °C 29.44in /  996.8hPa SW 4.0mph /  6.4km/h 14.0mph /  22.5km/h 51% 0.00in /  0mm
15:54 42.4 °F /  5.8 °C 25.6 °F /  -3.6 °C 29.44in /  996.8hPa SW 4.0mph /  6.4km/h 14.0mph /  22.5km/h 51% 0.00in /  0mm
15:59 42.3 °F /  5.7 °C 25.9 °F /  -3.4 °C 29.44in /  996.8hPa SW 4.0mph /  6.4km/h 9.0mph /  14.5km/h 52% 0.00in /  0mm
16:04 42.2 °F /  5.7 °C 25.8 °F /  -3.4 °C 29.45in /  997.2hPa WSW 4.0mph /  6.4km/h 9.0mph /  14.5km/h 52% 0.00in /  0mm
16:09 42.0 °F /  5.6 °C 25.6 °F /  -3.6 °C 29.45in /  997.2hPa SW 3.0mph /  4.8km/h 8.0mph /  12.9km/h 52% 0.00in /  0mm
16:14 42.0 °F /  5.6 °C 25.6 °F /  -3.6 °C 29.45in /  997.2hPa WSW 4.0mph /  6.4km/h 6.0mph /  9.7km/h 52% 0.00in /  0mm
16:20 42.0 °F /  5.6 °C 26.1 °F /  -3.3 °C 29.45in /  997.2hPa WSW 4.0mph /  6.4km/h 9.0mph /  14.5km/h 53% 0.00in /  0mm
16:30 41.5 °F /  5.3 °C 28.2 °F /  -2.1 °C 29.45in /  997.2hPa SSW 11.0mph /  17.7km/h 18.0mph /  29km/h 59% 0.00in /  0mm
16:39 40.4 °F /  4.7 °C 29.2 °F /  -1.6 °C 29.46in /  997.5hPa WSW 5.0mph /  8km/h 18.0mph /  29km/h 64% 0.00in /  0mm
16:44 40.1 °F /  4.5 °C 29.3 °F /  -1.5 °C 29.46in /  997.5hPa West 3.0mph /  4.8km/h 17.0mph /  27.4km/h 65% 0.00in /  0mm
16:49 39.8 °F /  4.3 °C 29.7 °F /  -1.3 °C 29.46in /  997.5hPa West 8.0mph /  12.9km/h 14.0mph /  22.5km/h 67% 0.00in /  0mm
16:54 39.6 °F /  4.2 °C 29.9 °F /  -1.2 °C 29.46in /  997.5hPa West 6.0mph /  9.7km/h 13.0mph /  20.9km/h 68% 0.00in /  0mm
16:59 39.3 °F /  4.1 °C 30.0 °F /  -1.1 °C 29.46in /  997.5hPa WSW 5.0mph /  8km/h 13.0mph /  20.9km/h 69% 0.00in /  0mm
17:04 39.2 °F /  4 °C 30.2 °F /  -1 °C 29.47in /  997.9hPa West 6.0mph /  9.7km/h 13.0mph /  20.9km/h 70% 0.00in /  0mm
17:09 39.0 °F /  3.9 °C 30.7 °F /  -0.7 °C 29.47in /  997.9hPa WSW 8.0mph /  12.9km/h 17.0mph /  27.4km/h 72% 0.00in /  0mm
17:14 38.7 °F /  3.7 °C 30.8 °F /  -0.7 °C 29.47in /  997.9hPa WSW 6.0mph /  9.7km/h 17.0mph /  27.4km/h 73% 0.00in /  0mm
17:19 38.2 °F /  3.4 °C 31.3 °F /  -0.4 °C 29.47in /  997.9hPa WSW 4.0mph /  6.4km/h 12.0mph /  19.3km/h 76% 0.00in /  0mm
17:24 37.9 °F /  3.3 °C 31.3 °F /  -0.4 °C 29.47in /  997.9hPa West 7.0mph /  11.3km/h 13.0mph /  20.9km/h 77% 0.00in /  0mm
17:29 37.7 °F /  3.2 °C 31.5 °F /  -0.3 °C 29.47in /  997.9hPa WSW 4.0mph /  6.4km/h 13.0mph /  20.9km/h 78% 0.00in /  0mm
17:34 37.4 °F /  3 °C 31.5 °F /  -0.3 °C 29.47in /  997.9hPa West 3.0mph /  4.8km/h 12.0mph /  19.3km/h 79% 0.00in /  0mm
17:39 37.2 °F /  2.9 °C 31.6 °F /  -0.2 °C 29.47in /  997.9hPa WSW 3.0mph /  4.8km/h 7.0mph /  11.3km/h 80% 0.00in /  0mm
17:44 37.0 °F /  2.8 °C 31.7 °F /  -0.2 °C 29.47in /  997.9hPa WSW 2.0mph /  3.2km/h 7.0mph /  11.3km/h 81% 0.00in /  0mm
17:49 36.8 °F /  2.7 °C 31.8 °F /  -0.1 °C 29.47in /  997.9hPa WSW 2.0mph /  3.2km/h 7.0mph /  11.3km/h 82% 0.00in /  0mm
17:54 36.7 °F /  2.6 °C 31.7 °F /  -0.2 °C 29.47in /  997.9hPa WSW 2.0mph /  3.2km/h 7.0mph /  11.3km/h 82% 0.00in /  0mm
17:59 36.5 °F /  2.5 °C 31.5 °F /  -0.3 °C 29.47in /  997.9hPa Calm   5.0mph /  8km/h 82% 0.00in /  0mm
18:04 36.4 °F /  2.4 °C 31.7 °F /  -0.2 °C 29.47in /  997.9hPa Calm   3.0mph /  4.8km/h 83% 0.00in /  0mm
18:09 36.2 °F /  2.3 °C 31.5 °F /  -0.3 °C 29.47in /  997.9hPa WSW 2.0mph /  3.2km/h 4.0mph /  6.4km/h 83% 0.00in /  0mm
18:14 36.0 °F /  2.2 °C 31.3 °F /  -0.4 °C 29.47in /  997.9hPa WSW 2.0mph /  3.2km/h 5.0mph /  8km/h 83% 0.00in /  0mm
18:19 36.0 °F /  2.2 °C 31.6 °F /  -0.2 °C 29.47in /  997.9hPa SW 2.0mph /  3.2km/h 5.0mph /  8km/h 84% 0.00in /  0mm
18:24 36.0 °F /  2.2 °C 31.6 °F /  -0.2 °C 29.47in /  997.9hPa SW 3.0mph /  4.8km/h 6.0mph /  9.7km/h 84% 0.00in /  0mm
18:29 36.2 °F /  2.3 °C 31.8 °F /  -0.1 °C 29.47in /  997.9hPa SW 2.0mph /  3.2km/h 6.0mph /  9.7km/h 84% 0.00in /  0mm
18:34 36.2 °F /  2.3 °C 31.8 °F /  -0.1 °C 29.47in /  997.9hPa SW 1.0mph /  1.6km/h 6.0mph /  9.7km/h 84% 0.00in /  0mm
18:39 36.3 °F /  2.4 °C 31.9 °F /  -0.1 °C 29.47in /  997.9hPa SW 1.0mph /  1.6km/h 5.0mph /  8km/h 84% 0.00in /  0mm
18:44 36.3 °F /  2.4 °C 31.9 °F /  -0.1 °C 29.47in /  997.9hPa SW 2.0mph /  3.2km/h 4.0mph /  6.4km/h 84% 0.00in /  0mm
18:49 36.5 °F /  2.5 °C 32.1 °F /  0.1 °C 29.47in /  997.9hPa SW 2.0mph /  3.2km/h 6.0mph /  9.7km/h 84% 0.00in /  0mm
18:54 36.6 °F /  2.6 °C 32.2 °F /  0.1 °C 29.47in /  997.9hPa SW 1.0mph /  1.6km/h 6.0mph /  9.7km/h 84% 0.00in /  0mm
18:59 36.6 °F /  2.6 °C 32.2 °F /  0.1 °C 29.47in /  997.9hPa SW 2.0mph /  3.2km/h 6.0mph /  9.7km/h 84% 0.00in /  0mm
19:04 36.6 °F /  2.6 °C 32.2 °F /  0.1 °C 29.47in /  997.9hPa SW 2.0mph /  3.2km/h 6.0mph /  9.7km/h 84% 0.00in /  0mm
19:09 36.5 °F /  2.5 °C 32.1 °F /  0.1 °C 29.47in /  997.9hPa SW 1.0mph /  1.6km/h 5.0mph /  8km/h 84% 0.00in /  0mm
19:14 36.5 °F /  2.5 °C 33.6 °F /  0.9 °C 29.47in /  997.9hPa SW 2.0mph /  3.2km/h 5.0mph /  8km/h 89% 0.00in /  0mm
19:19 36.5 °F /  2.5 °C 32.1 °F /  0.1 °C 29.47in /  997.9hPa Calm   5.0mph /  8km/h 84% 0.00in /  0mm
19:24 36.5 °F /  2.5 °C 32.1 °F /  0.1 °C 29.46in /  997.5hPa Calm   3.0mph /  4.8km/h 84% 0.00in /  0mm
19:29 36.5 °F /  2.5 °C 32.1 °F /  0.1 °C 29.47in /  997.9hPa SW 1.0mph /  1.6km/h 4.0mph /  6.4km/h 84% 0.00in /  0mm
19:34 36.5 °F /  2.5 °C 32.1 °F /  0.1 °C 29.47in /  997.9hPa Calm   4.0mph /  6.4km/h 84% 0.00in /  0mm
19:39 36.5 °F /  2.5 °C 32.4 °F /  0.2 °C 29.47in /  997.9hPa Calm   3.0mph /  4.8km/h 85% 0.00in /  0mm
19:44 36.5 °F /  2.5 °C 32.4 °F /  0.2 °C 29.47in /  997.9hPa WSW 1.0mph /  1.6km/h 6.0mph /  9.7km/h 85% 0.00in /  0mm
19:49 36.6 °F /  2.6 °C 32.5 °F /  0.3 °C 29.47in /  997.9hPa WSW 2.0mph /  3.2km/h 6.0mph /  9.7km/h 85% 0.00in /  0mm
19:54 36.6 °F /  2.6 °C 32.5 °F /  0.3 °C 29.47in /  997.9hPa SW 2.0mph /  3.2km/h 5.0mph /  8km/h 85% 0.00in /  0mm
19:59 36.6 °F /  2.6 °C 32.8 °F /  0.4 °C 29.47in /  997.9hPa WSW 3.0mph /  4.8km/h 7.0mph /  11.3km/h 86% 0.00in /  0mm
20:04 36.6 °F /  2.6 °C 32.8 °F /  0.4 °C 29.48in /  998.2hPa WSW 4.0mph /  6.4km/h 7.0mph /  11.3km/h 86% 0.00in /  0mm
20:09 36.4 °F /  2.4 °C 32.6 °F /  0.3 °C 29.48in /  998.2hPa SW 4.0mph /  6.4km/h 11.0mph /  17.7km/h 86% 0.00in /  0mm
20:14 36.2 °F /  2.3 °C 32.4 °F /  0.2 °C 29.47in /  997.9hPa WSW 3.0mph /  4.8km/h 11.0mph /  17.7km/h 86% 0.00in /  0mm
20:19 36.0 °F /  2.2 °C 32.2 °F /  0.1 °C 29.48in /  998.2hPa SW 3.0mph /  4.8km/h 11.0mph /  17.7km/h 86% 0.00in /  0mm
20:24 35.9 °F /  2.2 °C 32.1 °F /  0.1 °C 29.48in /  998.2hPa SW 4.0mph /  6.4km/h 12.0mph /  19.3km/h 86% 0.00in /  0mm
20:29 35.8 °F /  2.1 °C 32.3 °F /  0.2 °C 29.47in /  997.9hPa WSW 6.0mph /  9.7km/h 12.0mph /  19.3km/h 87% 0.00in /  0mm
20:34 35.7 °F /  2.1 °C 32.2 °F /  0.1 °C 29.47in /  997.9hPa SSW 4.0mph /  6.4km/h 10.0mph /  16.1km/h 87% 0.00in /  0mm
20:39 35.6 °F /  2 °C 32.1 °F /  0.1 °C 29.47in /  997.9hPa SW 6.0mph /  9.7km/h 11.0mph /  17.7km/h 87% 0.00in /  0mm
20:44 35.5 °F /  1.9 °C 32.3 °F /  0.2 °C 29.47in /  997.9hPa SSW 4.0mph /  6.4km/h 11.0mph /  17.7km/h 88% 0.00in /  0mm
20:49 35.4 °F /  1.9 °C 32.2 °F /  0.1 °C 29.47in /  997.9hPa SSW 4.0mph /  6.4km/h 8.0mph /  12.9km/h 88% 0.00in /  0mm
20:54 35.3 °F /  1.8 °C 32.1 °F /  0.1 °C 29.47in /  997.9hPa SSW 5.0mph /  8km/h 8.0mph /  12.9km/h 88% 0.00in /  0mm
20:59 35.3 °F /  1.8 °C 32.1 °F /  0.1 °C 29.47in /  997.9hPa SSW 4.0mph /  6.4km/h 8.0mph /  12.9km/h 88% 0.00in /  0mm
21:04 35.2 °F /  1.8 °C 32.3 °F /  0.2 °C 29.46in /  997.5hPa SW 3.0mph /  4.8km/h 9.0mph /  14.5km/h 89% 0.00in /  0mm
21:09 35.2 °F /  1.8 °C 32.3 °F /  0.2 °C 29.46in /  997.5hPa South 3.0mph /  4.8km/h 9.0mph /  14.5km/h 89% 0.00in /  0mm
21:14 35.2 °F /  1.8 °C 32.3 °F /  0.2 °C 29.46in /  997.5hPa South 4.0mph /  6.4km/h 9.0mph /  14.5km/h 89% 0.00in /  0mm
21:19 35.2 °F /  1.8 °C 32.3 °F /  0.2 °C 29.45in /  997.2hPa SSW 4.0mph /  6.4km/h 9.0mph /  14.5km/h 89% 0.00in /  0mm
21:25 35.2 °F /  1.8 °C 32.3 °F /  0.2 °C 29.45in /  997.2hPa SSW 4.0mph /  6.4km/h 7.0mph /  11.3km/h 89% 0.00in /  0mm
21:35 35.2 °F /  1.8 °C 32.6 °F /  0.3 °C 29.45in /  997.2hPa SSW 3.0mph /  4.8km/h 8.0mph /  12.9km/h 90% 0.00in /  0mm
21:44 35.2 °F /  1.8 °C 32.6 °F /  0.3 °C 29.44in /  996.8hPa South 4.0mph /  6.4km/h 8.0mph /  12.9km/h 90% 0.00in /  0mm
21:49 35.1 °F /  1.7 °C 32.5 °F /  0.3 °C 29.43in /  996.5hPa South 4.0mph /  6.4km/h 8.0mph /  12.9km/h 90% 0.00in /  0mm
21:54 35.0 °F /  1.7 °C 32.4 °F /  0.2 °C 29.43in /  996.5hPa SSW 3.0mph /  4.8km/h 6.0mph /  9.7km/h 90% 0.00in /  0mm
21:59 35.0 °F /  1.7 °C 32.6 °F /  0.3 °C 29.43in /  996.5hPa SSW 4.0mph /  6.4km/h 6.0mph /  9.7km/h 91% 0.00in /  0mm
22:04 35.0 °F /  1.7 °C 32.6 °F /  0.3 °C 29.43in /  996.5hPa South 4.0mph /  6.4km/h 8.0mph /  12.9km/h 91% 0.00in /  0mm
22:09 35.0 °F /  1.7 °C 32.6 °F /  0.3 °C 29.43in /  996.5hPa Calm   8.0mph /  12.9km/h 91% 0.00in /  0mm
22:14 34.9 °F /  1.6 °C 32.5 °F /  0.3 °C 29.43in /  996.5hPa SSW 3.0mph /  4.8km/h 5.0mph /  8km/h 91% 0.00in /  0mm
22:19 34.9 °F /  1.6 °C 32.5 °F /  0.3 °C 29.43in /  996.5hPa SSW 2.0mph /  3.2km/h 6.0mph /  9.7km/h 91% 0.00in /  0mm
22:25 34.9 °F /  1.6 °C 32.5 °F /  0.3 °C 29.43in /  996.5hPa SSW 2.0mph /  3.2km/h 6.0mph /  9.7km/h 91% 0.00in /  0mm
22:30 34.9 °F /  1.6 °C 32.5 °F /  0.3 °C 29.42in /  996.2hPa SSW 2.0mph /  3.2km/h 5.0mph /  8km/h 91% 0.00in /  0mm
22:35 35.0 °F /  1.7 °C 32.6 °F /  0.3 °C 29.42in /  996.2hPa SSW 2.0mph /  3.2km/h 5.0mph /  8km/h 91% 0.00in /  0mm
22:44 35.0 °F /  1.7 °C 32.6 °F /  0.3 °C 29.41in /  995.8hPa SSW 1.0mph /  1.6km/h 5.0mph /  8km/h 91% 0.00in /  0mm
22:49 35.1 °F /  1.7 °C 32.7 °F /  0.4 °C 29.40in /  995.5hPa SSE 3.0mph /  4.8km/h 6.0mph /  9.7km/h 91% 0.00in /  0mm
22:54 35.3 °F /  1.8 °C 32.9 °F /  0.5 °C 29.40in /  995.5hPa South 3.0mph /  4.8km/h 6.0mph /  9.7km/h 91% 0.00in /  0mm
22:59 35.4 °F /  1.9 °C 33.0 °F /  0.6 °C 29.40in /  995.5hPa South 2.0mph /  3.2km/h 6.0mph /  9.7km/h 91% 0.00in /  0mm
23:04 35.6 °F /  2 °C 33.5 °F /  0.8 °C 29.40in /  995.5hPa SSW 2.0mph /  3.2km/h 6.0mph /  9.7km/h 92% 0.00in /  0mm
23:09 35.9 °F /  2.2 °C 33.5 °F /  0.8 °C 29.39in /  995.1hPa South 4.0mph /  6.4km/h 7.0mph /  11.3km/h 91% 0.00in /  0mm
23:14 36.1 °F /  2.3 °C 33.7 °F /  0.9 °C 29.39in /  995.1hPa South 3.0mph /  4.8km/h 7.0mph /  11.3km/h 91% 0.00in /  0mm
23:20 36.2 °F /  2.3 °C 34.1 °F /  1.2 °C 29.39in /  995.1hPa South 3.0mph /  4.8km/h 11.0mph /  17.7km/h 92% 0.00in /  0mm
23:29 36.4 °F /  2.4 °C 34.0 °F /  1.1 °C 29.38in /  994.8hPa SSW 2.0mph /  3.2km/h 7.0mph /  11.3km/h 91% 0.00in /  0mm
23:34 36.4 °F /  2.4 °C 34.0 °F /  1.1 °C 29.37in /  994.5hPa South 1.0mph /  1.6km/h 6.0mph /  9.7km/h 91% 0.00in /  0mm
23:39 36.3 °F /  2.4 °C 33.9 °F /  1.1 °C 29.38in /  994.8hPa Calm   5.0mph /  8km/h 91% 0.00in /  0mm
23:44 36.2 °F /  2.3 °C 33.8 °F /  1 °C 29.38in /  994.8hPa SW 1.0mph /  1.6km/h 4.0mph /  6.4km/h 91% 0.00in /  0mm
23:49 36.1 °F /  2.3 °C 33.7 °F /  0.9 °C 29.38in /  994.8hPa Calm   4.0mph /  6.4km/h 91% 0.00in /  0mm
23:54 35.8 °F /  2.1 °C 33.4 °F /  0.8 °C 29.37in /  994.5hPa Calm     91% 0.00in /  0mm
23:59 35.6 °F /  2 °C 33.2 °F /  0.7 °C 29.37in /  994.5hPa Calm     91% 0.00in /  0mm
Westford Weather
Compliments of Weather Underground

 
 
Current Radar Loop:

Copyright © WestfordWeather.net 2007-2014. All rights reserved.